North Dighton, Massachusetts
Current Conditions -  °F | °C
As of 11:52 AM on Saturday 20 Dec 2014 (Local Time) from KTAN Reporting Station
Overcast Overcast  
Wind Chill: 30°   Ceiling: 2000
Heat Index: 35°   Visibility: 10mi
Dew Point: 25°   Wind: 6mph
Humidity: 67%   Direction: 360°N
Pressure: 30.25"   Gusts: NA
Location:  41.86°N, 71.12°W
Report Text: KTAN 201652Z AUTO 36005KT 10SM BKN020 OVC036 02/M04 A3025 RMK AO2 SLP242 T00171039
Loading
Personal Weather Stations






























Interactive Weather Map New forecast layout! Learn more

10-Day Weather Forecast

Advertisements
Track Severe Weather on mobile